Time;durP1;ratioP1;P1;durP2;ratioP2;P2;SDS_P1;SDS_P2;PMS_P1;PMS_P2;Temp;Humidity;BMP_temperature;BMP_pressure;BME280_temperature;BME280_humidity;BME280_pressure;Samples;Min_cycle;Max_cycle;Signal;HPM_P1;HPM_P2
2023/10/30 00:01:34;;;;;;;9.10;3.47;;;;;;;10.35;100.00;99765.13;5068744;28;20039;-70
2023/10/30 00:03:59;;;;;;;5.25;1.60;;;;;;;10.37;100.00;99764.88;5068780;28;20103;-70
2023/10/30 00:06:25;;;;;;;8.02;1.83;;;;;;;10.37;100.00;99773.69;5068592;28;20036;-71
2023/10/30 00:08:50;;;;;;;6.05;1.20;;;;;;;10.35;100.00;99774.94;5068403;28;20021;-70
2023/10/30 00:11:16;;;;;;;6.00;1.58;;;;;;;10.35;100.00;99783.78;5068629;28;20514;-71
2023/10/30 00:13:42;;;;;;;8.55;1.60;;;;;;;10.34;100.00;99779.47;5068573;28;20029;-70
2023/10/30 00:16:10;;;;;;;9.70;1.45;;;;;;;10.35;100.00;99789.13;5068450;28;20028;-71
2023/10/30 00:18:42;;;;;;;4.68;1.02;;;;;;;10.36;100.00;99792.59;5068411;28;20070;-70
2023/10/30 00:21:10;;;;;;;5.70;1.83;;;;;;;10.35;100.00;99788.28;5068353;28;20035;-71
2023/10/30 00:23:36;;;;;;;6.65;2.33;;;;;;;10.38;100.00;99796.66;5068041;28;20036;-71
2023/10/30 00:26:05;;;;;;;7.00;1.90;;;;;;;10.36;100.00;99796.06;5068067;28;20056;-70
2023/10/30 00:28:33;;;;;;;7.65;1.58;;;;;;;10.41;100.00;99806.88;5068195;28;20419;-71
2023/10/30 00:30:59;;;;;;;6.15;1.20;;;;;;;10.38;100.00;99804.66;5068238;28;20929;-71
2023/10/30 00:33:25;;;;;;;7.53;2.20;;;;;;;10.40;100.00;99815.09;5066905;28;20039;-70
2023/10/30 00:35:50;;;;;;;7.82;1.45;;;;;;;10.40;100.00;99818.59;5068271;28;20036;-71
2023/10/30 00:38:15;;;;;;;5.50;1.65;;;;;;;10.40;100.00;99823.09;5068280;28;20387;-71
2023/10/30 00:40:41;;;;;;;8.20;2.08;;;;;;;10.41;100.00;99828.22;5068115;28;20028;-70
2023/10/30 00:43:06;;;;;;;3.83;1.10;;;;;;;10.37;100.00;99823.53;5068124;28;20032;-70
2023/10/30 00:45:32;;;;;;;3.97;1.40;;;;;;;10.43;100.00;99842.13;5066091;28;20039;-71
2023/10/30 00:47:58;;;;;;;7.68;2.17;;;;;;;10.42;100.00;99845.81;5067952;28;20550;-71
2023/10/30 00:50:23;;;;;;;6.68;2.30;;;;;;;10.38;100.00;99841.16;5068059;28;20047;-71
2023/10/30 00:52:48;;;;;;;12.32;2.70;;;;;;;10.39;100.00;99842.78;5068043;28;20032;-71
2023/10/30 00:55:14;;;;;;;5.63;1.67;;;;;;;10.41;100.00;99851.38;5068092;28;20045;-70
2023/10/30 00:57:39;;;;;;;11.68;1.65;;;;;;;10.46;100.00;99854.22;5068152;28;20028;-70
2023/10/30 01:00:06;;;;;;;9.00;2.15;;;;;;;10.47;100.00;99851.31;5068024;28;20097;-70
2023/10/30 01:02:31;;;;;;;6.57;1.63;;;;;;;10.45;100.00;99847.22;5067750;28;20043;-70
2023/10/30 01:04:57;;;;;;;8.98;2.58;;;;;;;10.47;100.00;99855.81;5067759;28;20032;-70
2023/10/30 01:07:23;;;;;;;5.85;1.58;;;;;;;10.46;100.00;99863.00;5067804;28;20106;-70
2023/10/30 01:09:49;;;;;;;4.80;1.17;;;;;;;10.47;100.00;99866.50;5067747;28;20032;-71
2023/10/30 01:12:14;;;;;;;3.15;1.75;;;;;;;10.46;100.00;99873.69;5067838;28;20041;-71
2023/10/30 01:14:40;;;;;;;12.07;1.85;;;;;;;10.41;100.00;99857.53;5067675;28;20032;-70
2023/10/30 01:17:05;;;;;;;10.35;1.63;;;;;;;10.46;100.00;99867.53;5067832;28;20422;-71
2023/10/30 01:19:31;;;;;;;7.38;1.40;;;;;;;10.47;100.00;99875.28;5067666;28;20674;-71
2023/10/30 01:21:56;;;;;;;6.35;2.00;;;;;;;10.48;100.00;99876.13;5067622;28;20033;-70
2023/10/30 01:24:21;;;;;;;6.88;1.60;;;;;;;10.48;100.00;99879.63;5067787;28;20028;-70
2023/10/30 01:26:47;;;;;;;9.02;1.35;;;;;;;10.50;100.00;99874.84;5067427;28;21003;-70
2023/10/30 01:29:12;;;;;;;6.78;1.23;;;;;;;10.52;100.00;99877.31;5067808;28;20047;-70
2023/10/30 01:31:37;;;;;;;9.88;1.88;;;;;;;10.52;100.00;99875.44;5067733;28;20032;-70
2023/10/30 01:34:03;;;;;;;7.25;1.60;;;;;;;10.54;100.00;99867.25;5067643;28;20032;-70
2023/10/30 01:36:30;;;;;;;11.35;2.20;;;;;;;10.55;100.00;99865.38;5067582;28;20037;-71
2023/10/30 01:38:55;;;;;;;7.55;1.75;;;;;;;10.56;100.00;99869.69;5067741;28;20029;-71
2023/10/30 01:41:21;;;;;;;4.90;1.50;;;;;;;10.54;100.00;99864.59;5067436;28;20039;-70
2023/10/30 01:43:46;;;;;;;17.75;3.47;;;;;;;10.56;100.00;99861.69;5067468;28;20082;-70
2023/10/30 01:46:12;;;;;;;5.85;1.40;;;;;;;10.57;100.00;99860.66;5070075;28;20407;-70
2023/10/30 01:48:37;;;;;;;6.03;1.70;;;;;;;10.56;100.00;99865.19;5065915;28;20495;-70
2023/10/30 01:51:04;;;;;;;15.68;2.15;;;;;;;10.55;100.00;99866.19;5067288;28;20426;-70
2023/10/30 01:53:32;;;;;;;7.78;1.23;;;;;;;10.58;100.00;99871.09;5067364;28;20476;-70
2023/10/30 01:55:59;;;;;;;10.07;3.17;;;;;;;10.58;100.00;99867.59;5067436;28;20020;-70
2023/10/30 01:58:25;;;;;;;5.35;2.28;;;;;;;10.57;100.00;99869.47;5070632;28;20059;-71
2023/10/30 02:00:51;;;;;;;3.22;1.13;;;;;;;10.62;100.00;99874.94;5071111;28;20032;-70
2023/10/30 02:03:17;;;;;;;7.75;1.73;;;;;;;10.62;100.00;99871.47;5070898;28;20051;-70
2023/10/30 02:05:42;;;;;;;3.67;1.10;;;;;;;10.59;100.00;99875.41;5070975;28;20127;-70
2023/10/30 02:08:09;;;;;;;4.35;1.67;;;;;;;10.60;100.00;99879.69;5070778;28;20028;-70
2023/10/30 02:10:34;;;;;;;6.20;3.38;;;;;;;10.59;100.00;99883.41;5070900;28;20097;-70
2023/10/30 02:13:03;;;;;;;7.30;1.95;;;;;;;10.60;100.00;99884.22;5070790;28;20036;-70
2023/10/30 02:15:29;;;;;;;8.10;2.25;;;;;;;10.59;100.00;99883.41;5069308;28;20043;-70
2023/10/30 02:17:54;;;;;;;5.85;2.10;;;;;;;10.59;100.00;99878.06;5070598;28;20037;-70
2023/10/30 02:20:20;;;;;;;6.28;1.40;;;;;;;10.61;100.00;99885.81;5070778;28;20123;-71
2023/10/30 02:22:45;;;;;;;7.20;1.98;;;;;;;10.62;100.00;99874.16;5070735;28;20044;-70
2023/10/30 02:25:10;;;;;;;10.30;4.32;;;;;;;10.60;100.00;99870.88;5069163;28;20036;-70
2023/10/30 02:27:36;;;;;;;6.95;2.45;;;;;;;10.64;100.00;99877.41;5070429;28;20074;-70
2023/10/30 02:30:01;;;;;;;6.28;1.35;;;;;;;10.62;100.00;99876.81;5069141;28;20086;-70
2023/10/30 02:32:26;;;;;;;7.10;1.65;;;;;;;10.62;100.00;99882.97;5070505;28;20037;-71
2023/10/30 02:34:52;;;;;;;12.40;1.60;;;;;;;10.58;100.00;99872.94;5070504;28;20085;-71
2023/10/30 02:37:17;;;;;;;7.80;1.27;;;;;;;10.59;100.00;99877.25;5035870;28;20074;-70
2023/10/30 02:39:42;;;;;;;7.30;2.47;;;;;;;10.58;100.00;99872.94;5070288;28;20036;-71
2023/10/30 02:42:08;;;;;;;11.65;3.17;;;;;;;10.57;100.00;99876.66;5070299;28;20063;-70
2023/10/30 02:44:34;;;;;;;5.75;1.20;;;;;;;10.54;100.00;99864.59;5070119;28;20036;-70
2023/10/30 02:46:59;;;;;;;6.80;1.70;;;;;;;10.54;100.00;99867.25;5070075;28;20036;-71
2023/10/30 02:49:25;;;;;;;6.95;1.40;;;;;;;10.52;100.00;99858.66;5070100;28;20029;-71
2023/10/30 02:51:50;;;;;;;6.18;1.50;;;;;;;10.53;100.00;99865.59;5068798;28;20542;-70
2023/10/30 02:54:16;;;;;;;6.28;1.23;;;;;;;10.49;100.00;99849.25;5069923;28;20043;-71
2023/10/30 02:56:41;;;;;;;6.15;1.17;;;;;;;10.51;100.00;99857.03;5069932;28;20103;-70
2023/10/30 02:59:07;;;;;;;5.03;1.48;;;;;;;10.50;100.00;99860.72;5069972;28;20029;-70
2023/10/30 03:01:33;;;;;;;7.47;2.40;;;;;;;10.47;100.00;99858.50;5069852;28;20028;-70
2023/10/30 03:03:59;;;;;;;6.47;2.38;;;;;;;10.49;100.00;99865.22;5069795;28;20071;-71
2023/10/30 03:06:25;;;;;;;5.03;1.17;;;;;;;10.50;100.00;99866.84;5069717;28;20540;-70
2023/10/30 03:08:50;;;;;;;13.45;2.38;;;;;;;10.50;100.00;99861.53;5068974;28;20070;-70
2023/10/30 03:11:16;;;;;;;5.65;1.85;;;;;;;10.49;100.00;99859.91;5069682;28;20400;-70
2023/10/30 03:13:41;;;;;;;5.80;1.23;;;;;;;10.48;100.00;99863.63;5068500;28;20036;-71
2023/10/30 03:16:06;;;;;;;4.95;1.60;;;;;;;10.51;100.00;99871.16;5069652;28;20039;-71
2023/10/30 03:18:32;;;;;;;13.70;2.53;;;;;;;10.55;100.00;99868.88;5069555;28;20375;-70
2023/10/30 03:20:57;;;;;;;6.63;1.50;;;;;;;10.55;100.00;99870.72;5069529;28;20043;-70
2023/10/30 03:23:22;;;;;;;8.35;1.90;;;;;;;10.54;100.00;99875.25;5069517;28;20594;-70
2023/10/30 03:25:48;;;;;;;8.55;1.27;;;;;;;10.53;100.00;99879.78;5069334;28;20056;-71
2023/10/30 03:28:13;;;;;;;10.95;2.58;;;;;;;10.53;100.00;99877.09;5068245;28;20119;-71
2023/10/30 03:30:39;;;;;;;6.97;1.58;;;;;;;10.55;100.00;99876.88;5069421;28;20033;-70
2023/10/30 03:33:05;;;;;;;7.22;1.77;;;;;;;10.60;100.00;99889.53;5069405;28;20395;-70
2023/10/30 03:35:31;;;;;;;8.07;1.60;;;;;;;10.57;100.00;99884.66;5069256;28;20055;-70
2023/10/30 03:37:56;;;;;;;6.10;1.80;;;;;;;10.55;100.00;99884.06;5069134;28;20121;-70
2023/10/30 03:40:22;;;;;;;7.60;2.22;;;;;;;10.57;100.00;99882.78;5069143;28;20115;-71
2023/10/30 03:42:47;;;;;;;9.77;1.45;;;;;;;10.57;100.00;99882.00;5068989;28;20535;-71
2023/10/30 03:45:13;;;;;;;7.35;1.77;;;;;;;10.57;100.00;99880.13;5069198;28;20032;-70
2023/10/30 03:47:38;;;;;;;8.98;1.48;;;;;;;10.57;100.00;99884.66;5068892;28;20511;-70
2023/10/30 03:50:06;;;;;;;7.28;1.52;;;;;;;10.55;100.00;99882.19;5069185;28;20042;-70
2023/10/30 03:52:31;;;;;;;9.25;1.55;;;;;;;10.54;100.00;99883.25;5068802;28;20052;-71
2023/10/30 03:55:03;;;;;;;4.63;0.98;;;;;;;10.56;100.00;99880.34;5068889;28;20539;-70
2023/10/30 03:57:28;;;;;;;;;;;;;;;10.56;100.00;99877.69;5069339;28;20048;-70
2023/10/30 03:59:54;;;;;;;7.70;1.50;;;;;;;10.50;100.00;99869.53;5068806;28;19955;-70
2023/10/30 04:02:19;;;;;;;7.28;1.75;;;;;;;10.52;100.00;99877.31;5068727;28;20123;-70
2023/10/30 04:04:44;;;;;;;8.70;2.22;;;;;;;10.50;100.00;99887.38;5068697;28;20078;-70
2023/10/30 04:07:10;;;;;;;10.13;1.17;;;;;;;10.46;100.00;99883.53;5068706;28;20035;-71
2023/10/30 04:09:35;;;;;;;6.65;1.17;;;;;;;10.49;100.00;99891.09;5068594;28;20547;-70
2023/10/30 04:12:02;;;;;;;2.90;1.75;;;;;;;10.46;100.00;99887.00;5068502;28;20127;-71
2023/10/30 04:14:30;;;;;;;9.80;1.48;;;;;;;10.44;100.00;99875.75;5068571;28;20029;-71
2023/10/30 04:16:56;;;;;;;7.38;2.22;;;;;;;10.43;100.00;99884.78;5068506;28;20078;-71
2023/10/30 04:19:22;;;;;;;14.02;2.38;;;;;;;10.42;100.00;99877.00;5067163;28;20398;-71
2023/10/30 04:21:47;;;;;;;4.75;1.00;;;;;;;10.42;100.00;99882.31;5067527;28;20139;-71
2023/10/30 04:24:13;;;;;;;8.00;2.22;;;;;;;10.39;100.00;99878.25;5068484;28;20081;-70
2023/10/30 04:26:38;;;;;;;8.95;2.40;;;;;;;10.36;100.00;99876.03;5068093;28;20048;-70
2023/10/30 04:29:04;;;;;;;4.03;1.38;;;;;;;10.36;100.00;99875.22;5068346;28;20044;-71
2023/10/30 04:31:29;;;;;;;9.05;1.33;;;;;;;10.34;100.00;99880.75;5068438;28;20036;-71
2023/10/30 04:33:54;;;;;;;10.52;2.15;;;;;;;10.33;100.00;99876.47;5068321;28;20029;-71
2023/10/30 04:36:20;;;;;;;7.68;2.22;;;;;;;10.26;100.00;99879.16;5068182;28;20033;-71
2023/10/30 04:38:46;;;;;;;5.63;2.72;;;;;;;10.29;100.00;99883.25;5068179;28;20032;-71
2023/10/30 04:41:11;;;;;;;11.38;1.38;;;;;;;10.27;100.00;99882.63;5068058;28;20099;-71
2023/10/30 04:43:37;;;;;;;5.93;1.15;;;;;;;10.21;100.00;99878.97;5068103;28;20047;-70
2023/10/30 04:46:03;;;;;;;7.75;3.22;;;;;;;10.24;100.00;99885.72;5067849;28;20118;-71
2023/10/30 04:48:31;;;;;;;4.75;1.88;;;;;;;10.20;100.00;99876.56;5066559;28;20166;-70
2023/10/30 04:50:57;;;;;;;10.93;1.65;;;;;;;10.20;100.00;99884.56;5067995;28;20032;-70
2023/10/30 04:53:22;;;;;;;3.22;1.33;;;;;;;10.20;100.00;99895.22;5067946;28;20395;-70
2023/10/30 04:55:51;;;;;;;4.63;1.25;;;;;;;10.14;100.00;99882.75;5068100;28;20100;-71
2023/10/30 04:58:17;;;;;;;6.35;1.40;;;;;;;10.19;100.00;99889.06;5068023;28;20028;-71
2023/10/30 05:00:44;;;;;;;10.95;1.67;;;;;;;10.17;100.00;99883.13;5067941;28;20074;-71
2023/10/30 05:03:10;;;;;;;3.83;0.90;;;;;;;10.16;100.00;99886.81;5068080;28;20107;-70
2023/10/30 05:05:35;;;;;;;6.20;1.27;;;;;;;10.13;100.00;99886.44;5067939;28;20182;-71
2023/10/30 05:08:01;;;;;;;6.63;1.30;;;;;;;10.10;100.00;99879.69;5067810;28;20075;-71
2023/10/30 05:10:26;;;;;;;9.52;2.97;;;;;;;10.08;100.00;99885.22;5067800;28;20528;-71
2023/10/30 05:12:52;;;;;;;11.65;2.20;;;;;;;10.08;100.00;99868.44;5067713;28;20032;-71
2023/10/30 05:15:18;;;;;;;10.90;1.90;;;;;;;10.06;100.00;99867.84;5067785;28;20053;-70
2023/10/30 05:17:44;;;;;;;6.03;1.70;;;;;;;10.03;100.00;99868.28;5067676;28;20032;-70
2023/10/30 05:20:10;;;;;;;5.82;1.50;;;;;;;10.00;100.00;99864.19;5067730;28;20035;-70
2023/10/30 05:22:35;;;;;;;8.75;1.20;;;;;;;10.02;100.00;99874.66;5067663;28;20039;-71
2023/10/30 05:25:05;;;;;;;8.95;2.28;;;;;;;10.01;100.00;99875.69;5067397;28;20040;-71
2023/10/30 05:27:30;;;;;;;5.07;1.90;;;;;;;10.00;100.00;99869.53;5067711;28;20493;-70
2023/10/30 05:29:56;;;;;;;3.45;1.27;;;;;;;9.99;100.00;99875.91;5067694;28;20116;-70
2023/10/30 05:32:21;;;;;;;9.32;1.65;;;;;;;9.96;100.00;99875.53;5069327;28;20029;-71
2023/10/30 05:34:48;;;;;;;12.55;2.10;;;;;;;9.96;100.00;99883.50;5071466;28;20036;-71
2023/10/30 05:37:14;;;;;;;8.85;2.60;;;;;;;9.93;100.00;99871.44;5071470;28;20092;-71
2023/10/30 05:39:39;;;;;;;7.97;1.55;;;;;;;9.91;100.00;99864.69;5071423;28;20215;-71
2023/10/30 05:42:05;;;;;;;8.75;1.70;;;;;;;9.92;100.00;99863.66;5071334;28;20090;-71
2023/10/30 05:44:31;;;;;;;5.88;1.50;;;;;;;9.90;100.00;99855.88;5071342;28;20591;-71
2023/10/30 05:46:57;;;;;;;5.97;1.38;;;;;;;9.93;100.00;99851.97;5070948;28;20028;-70
2023/10/30 05:49:23;;;;;;;10.50;1.60;;;;;;;9.93;100.00;99873.28;5070830;28;20560;-71
2023/10/30 05:51:48;;;;;;;5.97;1.50;;;;;;;9.92;100.00;99876.97;5071357;28;20029;-71
2023/10/30 05:54:13;;;;;;;10.23;3.72;;;;;;;9.88;100.00;99879.25;5071112;28;20245;-71
2023/10/30 05:56:39;;;;;;;3.33;1.20;;;;;;;9.91;100.00;99872.69;5071128;28;20024;-70
2023/10/30 05:59:04;;;;;;;5.88;2.05;;;;;;;9.89;100.00;99878.22;5071136;28;20463;-71
2023/10/30 06:01:29;;;;;;;9.00;2.70;;;;;;;9.83;100.00;99877.25;5071035;28;20951;-71
2023/10/30 06:03:56;;;;;;;5.05;1.20;;;;;;;9.85;100.00;99867.19;5070775;28;20036;-71
2023/10/30 06:06:21;;;;;;;7.97;1.40;;;;;;;9.84;100.00;99875.38;5070858;28;20063;-71
2023/10/30 06:08:47;;;;;;;11.63;2.33;;;;;;;9.74;100.00;99859.06;5070844;28;20063;-71
2023/10/30 06:11:12;;;;;;;7.75;1.48;;;;;;;9.80;100.00;99871.53;5069444;28;20038;-71
2023/10/30 06:13:37;;;;;;;7.15;2.60;;;;;;;9.78;100.00;99876.25;5070719;28;20044;-71
2023/10/30 06:16:03;;;;;;;5.05;2.45;;;;;;;9.75;100.00;99866.03;5069287;28;20111;-71
2023/10/30 06:18:28;;;;;;;4.80;1.63;;;;;;;9.74;100.00;99878.53;5069484;28;20039;-70
2023/10/30 06:20:54;;;;;;;5.05;2.15;;;;;;;9.75;100.00;99876.69;5069580;28;20036;-71
2023/10/30 06:23:19;;;;;;;8.73;1.90;;;;;;;9.70;100.00;99869.34;5070903;28;20546;-71
2023/10/30 06:25:44;;;;;;;7.15;1.95;;;;;;;9.68;100.00;99871.41;5071231;28;20084;-70
2023/10/30 06:28:12;;;;;;;4.45;1.33;;;;;;;9.68;100.00;99878.59;5072896;28;20369;-70
2023/10/30 06:30:38;;;;;;;7.68;1.45;;;;;;;9.63;100.00;99887.19;5070223;28;20032;-70
2023/10/30 06:33:03;;;;;;;7.93;1.77;;;;;;;9.63;100.00;99881.88;5069525;28;20085;-71
2023/10/30 06:35:29;;;;;;;7.57;2.03;;;;;;;9.64;100.00;99905.63;5069639;28;20024;-70
2023/10/30 06:37:54;;;;;;;4.47;1.55;;;;;;;9.61;100.00;99905.22;5069164;28;20548;-71
2023/10/30 06:40:19;;;;;;;9.05;2.78;;;;;;;9.60;100.00;99914.25;5069522;28;20040;-70
2023/10/30 06:42:45;;;;;;;7.82;1.83;;;;;;;9.60;100.00;99912.41;5067864;28;20472;-71
2023/10/30 06:45:10;;;;;;;3.63;1.60;;;;;;;9.59;100.00;99907.31;5069090;28;20024;-70
2023/10/30 06:47:35;;;;;;;7.78;2.25;;;;;;;9.59;100.00;99920.63;5070035;28;20039;-70
2023/10/30 06:50:02;;;;;;;10.80;3.75;;;;;;;9.58;100.00;99918.97;5070195;28;20963;-70
2023/10/30 06:52:28;;;;;;;6.18;2.00;;;;;;;9.48;100.00;99922.09;5069405;28;20090;-70
2023/10/30 06:54:53;;;;;;;4.90;1.67;;;;;;;9.54;100.00;99928.44;5067363;28;20061;-70
2023/10/30 06:57:18;;;;;;;8.73;2.25;;;;;;;9.55;100.00;99933.53;5069813;28;20036;-71
2023/10/30 06:59:44;;;;;;;6.82;1.80;;;;;;;9.53;100.00;99930.25;5070072;28;20476;-71
2023/10/30 07:02:10;;;;;;;8.18;2.00;;;;;;;9.57;100.00;99930.66;5052003;28;20494;-71
2023/10/30 07:04:37;;;;;;;8.55;2.35;;;;;;;9.57;100.00;99934.13;5069651;28;20035;-70
2023/10/30 07:07:03;;;;;;;5.70;1.83;;;;;;;9.57;100.00;99930.66;5069588;28;20036;-70
2023/10/30 07:09:28;;;;;;;3.92;2.47;;;;;;;9.58;100.00;99933.09;5069526;28;20037;-70
2023/10/30 07:11:53;;;;;;;6.50;3.50;;;;;;;9.65;100.00;99925.09;5068203;28;20028;-70
2023/10/30 07:14:19;;;;;;;12.60;4.32;;;;;;;9.66;100.00;99924.84;5069477;28;20029;-71
2023/10/30 07:16:44;;;;;;;11.95;3.50;;;;;;;9.70;100.00;99929.78;5069102;28;20967;-70
2023/10/30 07:19:09;;;;;;;16.67;3.80;;;;;;;9.70;100.00;99927.91;5069810;28;20170;-70
2023/10/30 07:21:35;;;;;;;8.18;1.67;;;;;;;9.76;100.00;99934.25;5067945;28;20060;-70
2023/10/30 07:24:00;;;;;;;8.68;2.15;;;;;;;9.79;100.00;99936.47;5069533;28;20094;-71
2023/10/30 07:26:26;;;;;;;9.02;1.60;;;;;;;9.81;100.00;99937.06;5068919;28;20121;-70
2023/10/30 07:28:52;;;;;;;5.70;1.75;;;;;;;9.83;100.00;99935.03;5069053;28;20044;-70
2023/10/30 07:31:18;;;;;;;7.75;2.10;;;;;;;9.85;100.00;99947.09;5069206;28;20134;-71
2023/10/30 07:33:44;;;;;;;6.10;2.00;;;;;;;9.87;100.00;99928.22;5069130;28;20021;-70
2023/10/30 07:36:10;;;;;;;2.33;1.33;;;;;;;9.89;100.00;99936.81;5067867;28;20059;-70
2023/10/30 07:38:36;;;;;;;5.85;2.20;;;;;;;9.92;100.00;99936.38;5068982;28;20123;-70
2023/10/30 07:41:02;;;;;;;5.18;1.60;;;;;;;9.96;100.00;99948.25;5068962;28;20111;-71
2023/10/30 07:43:28;;;;;;;7.03;2.30;;;;;;;10.07;100.00;99952.06;5068540;28;20035;-71
2023/10/30 07:45:53;;;;;;;8.45;3.40;;;;;;;10.17;100.00;99954.28;5068724;28;20689;-71
2023/10/30 07:48:20;;;;;;;6.82;2.13;;;;;;;10.24;100.00;99960.34;5068826;28;20035;-71
2023/10/30 07:50:46;;;;;;;7.47;2.15;;;;;;;10.20;100.00;99957.31;5068789;28;20047;-70
2023/10/30 07:53:14;;;;;;;11.07;2.10;;;;;;;10.28;100.00;99961.59;5068631;28;21018;-70
2023/10/30 07:55:40;;;;;;;8.82;2.67;;;;;;;10.32;100.00;99962.78;5068219;28;20082;-70
2023/10/30 07:58:06;;;;;;;8.80;2.60;;;;;;;10.37;100.00;99960.28;5068623;28;20028;-70
2023/10/30 08:00:34;;;;;;;5.22;2.22;;;;;;;10.37;100.00;99956.78;5068350;28;20823;-70
2023/10/30 08:03:00;;;;;;;8.00;2.40;;;;;;;10.39;100.00;99960.88;5068429;28;20068;-71
2023/10/30 08:05:26;;;;;;;7.88;3.33;;;;;;;10.38;100.00;99958.44;5068379;28;20506;-71
2023/10/30 08:07:52;;;;;;;10.05;2.75;;;;;;;10.41;100.00;99961.47;5068340;28;20105;-71
2023/10/30 08:10:17;;;;;;;12.85;2.88;;;;;;;10.44;100.00;99962.91;5067799;28;20456;-71
2023/10/30 08:12:43;;;;;;;7.85;2.97;;;;;;;10.48;100.00;99959.59;5067009;28;20086;-71
2023/10/30 08:15:08;;;;;;;10.40;2.92;;;;;;;10.55;100.00;99956.84;5066841;28;20038;-71
2023/10/30 08:17:33;;;;;;;11.70;2.33;;;;;;;10.64;100.00;99958.22;5068458;28;20107;-71
2023/10/30 08:19:59;;;;;;;4.93;2.17;;;;;;;10.74;100.00;99955.88;5068205;28;20032;-71
2023/10/30 08:22:25;;;;;;;8.50;2.08;;;;;;;10.83;100.00;99959.06;5068252;28;20032;-72
2023/10/30 08:24:51;;;;;;;14.70;3.25;;;;;;;10.92;100.00;99963.06;5067961;28;20076;-73
2023/10/30 08:27:17;;;;;;;9.32;1.60;;;;;;;10.99;100.00;99965.69;5067878;28;20060;-73
2023/10/30 08:29:42;;;;;;;12.73;4.70;;;;;;;11.06;100.00;99955.75;5066950;28;20034;-73
2023/10/30 08:32:07;;;;;;;8.30;2.40;;;;;;;11.14;100.00;99963.47;5068183;28;20036;-73
2023/10/30 08:34:33;;;;;;;13.70;4.22;;;;;;;11.28;100.00;99971.31;5067857;28;20395;-73
2023/10/30 08:36:59;;;;;;;5.13;2.10;;;;;;;11.36;100.00;99966.47;5068063;28;20115;-73
2023/10/30 08:39:24;;;;;;;9.05;2.80;;;;;;;11.41;100.00;99974.63;5067779;28;20043;-73
2023/10/30 08:41:49;;;;;;;14.25;2.85;;;;;;;11.46;100.00;99983.84;5066432;28;20105;-73
2023/10/30 08:44:15;;;;;;;9.20;2.90;;;;;;;11.47;100.00;99980.94;5068173;28;20036;-73
2023/10/30 08:46:40;;;;;;;7.18;1.92;;;;;;;11.51;100.00;99973.31;5065143;28;20034;-70
2023/10/30 08:49:05;;;;;;;11.07;2.38;;;;;;;11.60;100.00;99977.28;5065091;28;20121;-72
2023/10/30 08:51:31;;;;;;;5.47;2.38;;;;;;;11.64;100.00;99967.81;5065989;28;20068;-73
2023/10/30 08:53:57;;;;;;;10.52;3.58;;;;;;;11.74;100.00;99967.28;5065885;28;20793;-72
2023/10/30 08:56:22;;;;;;;7.70;2.63;;;;;;;11.78;100.00;99976.44;5065830;28;20028;-71
2023/10/30 08:58:48;;;;;;;5.43;1.60;;;;;;;11.84;100.00;99980.88;5065494;28;20025;-72
2023/10/30 09:01:14;;;;;;;10.10;2.60;;;;;;;11.86;100.00;99989.53;5065487;28;20028;-71
2023/10/30 09:03:42;;;;;;;5.07;2.92;;;;;;;11.90;100.00;99992.56;5065915;28;20031;-69
2023/10/30 09:06:08;;;;;;;5.80;1.92;;;;;;;11.91;100.00;99981.63;5065250;28;20838;-68
2023/10/30 09:08:33;;;;;;;6.47;2.28;;;;;;;11.92;100.00;99980.63;5069052;28;20043;-69
2023/10/30 09:10:59;;;;;;;8.95;3.17;;;;;;;11.93;100.00;99978.75;5069603;28;20071;-69
2023/10/30 09:13:24;;;;;;;9.68;2.47;;;;;;;11.93;100.00;99979.56;5069275;28;20039;-69
2023/10/30 09:15:50;;;;;;;8.10;1.77;;;;;;;11.95;100.00;99979.34;5069150;28;20063;-68
2023/10/30 09:18:16;;;;;;;9.00;2.83;;;;;;;11.99;100.00;99985.84;5069289;28;20403;-70
2023/10/30 09:20:41;;;;;;;9.90;3.50;;;;;;;12.04;100.00;99986.00;5069027;28;20031;-70
2023/10/30 09:23:07;;;;;;;6.63;1.83;;;;;;;12.05;100.00;99982.25;5069380;28;20483;-71
2023/10/30 09:25:33;;;;;;;6.43;2.00;;;;;;;12.07;100.00;99974.84;5068125;28;20087;-71
2023/10/30 09:27:59;;;;;;;4.18;1.83;;;;;;;12.08;100.00;99976.50;5069208;28;20028;-71
2023/10/30 09:30:30;;;;;;;16.80;4.95;;;;;;;12.09;100.00;99971.94;5068082;28;20122;-70
2023/10/30 09:32:56;;;;;;;10.13;3.65;;;;;;;12.13;100.00;99975.78;5069190;28;20090;-71
2023/10/30 09:35:21;;;;;;;9.85;2.72;;;;;;;12.16;100.00;99960.13;5068962;28;20037;-74
2023/10/30 09:37:47;;;;;;;6.35;1.88;;;;;;;12.18;100.00;99965.22;5069545;28;20489;-73
2023/10/30 09:40:13;;;;;;;10.60;1.75;;;;;;;12.21;100.00;99970.13;5068945;28;20040;-71
2023/10/30 09:42:49;;;;;;;13.48;2.85;;;;;;;12.20;100.00;99960.47;5070712;28;20502;-71
2023/10/30 09:45:17;;;;;;;9.38;1.92;;;;;;;12.21;100.00;99970.94;5069767;28;20094;-71
2023/10/30 09:47:43;;;;;;;3.03;1.52;;;;;;;12.22;100.00;99967.22;5069759;28;20511;-71
2023/10/30 09:50:10;;;;;;;3.70;1.33;;;;;;;12.22;100.00;99961.88;5068483;28;20032;-70
2023/10/30 09:52:36;;;;;;;6.50;2.83;;;;;;;12.30;100.00;99963.41;5070191;28;20115;-72
2023/10/30 09:55:09;;;;;;;13.50;3.08;;;;;;;12.33;100.00;99964.78;5068783;28;20476;-71
2023/10/30 09:57:35;;;;;;;9.20;2.83;;;;;;;12.37;100.00;99963.31;5070280;28;20099;-72
2023/10/30 10:00:02;;;;;;;9.73;2.55;;;;;;;12.34;100.00;99953.88;5070678;28;20033;-71
2023/10/30 10:02:28;;;;;;;9.77;2.13;;;;;;;12.40;100.00;99954.81;5069495;28;20070;-72
2023/10/30 10:04:56;;;;;;;5.05;1.40;;;;;;;12.41;100.00;99943.06;5070972;28;20040;-71
2023/10/30 10:07:22;;;;;;;4.68;1.63;;;;;;;12.46;100.00;99940.50;5070303;28;20123;-71
2023/10/30 10:10:01;;;;;;;6.82;1.40;;;;;;;12.50;100.00;99933.66;5068940;28;20036;-71
2023/10/30 10:12:26;;;;;;;8.02;1.70;;;;;;;12.52;100.00;99926.19;5034060;28;20481;-68
2023/10/30 10:14:52;;;;;;;15.13;3.40;;;;;;;12.55;100.00;99923.09;5066846;28;20051;-68
2023/10/30 10:17:17;;;;;;;7.68;2.08;;;;;;;12.54;100.00;99921.44;5068106;28;20025;-69
2023/10/30 10:19:46;;;;;;;3.78;1.27;;;;;;;12.62;100.00;99926.44;5069046;28;20051;-70
2023/10/30 10:22:29;;;;;;;3.67;1.30;;;;;;;12.60;100.00;99927.72;5070102;28;20028;-71
2023/10/30 10:24:55;;;;;;;11.10;1.67;;;;;;;12.65;100.00;99930.50;5069658;28;20109;-70
2023/10/30 10:27:24;;;;;;;8.48;1.67;;;;;;;12.70;100.00;99928.75;5069247;28;20049;-71
2023/10/30 10:29:57;;;;;;;6.53;1.38;;;;;;;12.69;100.00;99919.13;5069368;28;20043;-70
2023/10/30 10:32:26;;;;;;;11.27;1.83;;;;;;;12.78;100.00;99930.28;5069462;28;20471;-71
2023/10/30 10:34:54;;;;;;;6.25;2.72;;;;;;;12.81;100.00;99932.50;5069287;28;20119;-71
2023/10/30 10:37:20;;;;;;;6.47;1.83;;;;;;;12.83;100.00;99935.72;5069593;28;20135;-71
2023/10/30 10:39:48;;;;;;;9.00;2.25;;;;;;;12.86;100.00;99926.41;5070183;28;20032;-71
2023/10/30 10:42:18;;;;;;;9.90;2.25;;;;;;;12.89;100.00;99924.13;5070135;28;20032;-70
2023/10/30 10:44:45;;;;;;;5.55;1.88;;;;;;;12.93;100.00;99921.78;5070293;28;20033;-71
2023/10/30 10:47:11;;;;;;;8.38;1.35;;;;;;;12.97;100.00;99919.44;5069804;28;20068;-71
2023/10/30 10:49:36;;;;;;;6.53;2.15;;;;;;;12.99;100.00;99915.47;5068135;28;20059;-71
2023/10/30 10:52:05;;;;;;;6.30;1.73;;;;;;;12.97;100.00;99904.22;5070229;28;20089;-71
2023/10/30 10:54:35;;;;;;;6.72;1.27;;;;;;;13.03;100.00;99913.16;5069951;28;20037;-70
2023/10/30 10:57:03;;;;;;;2.75;1.27;;;;;;;13.01;100.00;99913.38;5069261;28;20115;-70
2023/10/30 10:59:30;;;;;;;5.63;1.70;;;;;;;13.04;100.00;99920.13;5069887;28;20055;-70
2023/10/30 11:01:59;;;;;;;4.93;1.73;;;;;;;13.07;100.00;99919.66;5069874;28;20091;-71
2023/10/30 11:04:25;;;;;;;6.32;1.33;;;;;;;13.09;100.00;99909.53;5069817;28;20067;-71
2023/10/30 11:07:06;;;;;;;3.22;1.38;;;;;;;13.08;100.00;99902.56;5069702;28;20069;-70
2023/10/30 11:09:41;;;;;;;3.35;0.75;;;;;;;13.13;100.00;99903.47;5069629;28;20491;-71
2023/10/30 11:12:25;;;;;;;5.30;1.95;;;;;;;13.15;100.00;99913.91;5069425;28;20040;-71
2023/10/30 11:15:07;;;;;;;5.82;1.52;;;;;;;13.15;100.00;99909.41;5069587;28;20040;-70
2023/10/30 11:17:32;;;;;;;5.43;1.10;;;;;;;13.15;100.00;99904.03;5069458;28;20025;-71
2023/10/30 11:20:03;;;;;;;4.38;1.25;;;;;;;13.16;100.00;99902.97;5069347;28;20036;-70
2023/10/30 11:22:42;;;;;;;7.97;1.47;;;;;;;13.19;100.00;99898.22;5069495;28;20042;-71